Blewbury, United Kingdom
Current Conditions -  °F | °C
As of 11:50 PM on Wednesday 26 Nov 2014 (Local Time) from EGUB Reporting Station
Overcast Overcast  
Wind Chill: 46°   Ceiling: 200
Heat Index: 46°   Visibility: 0.62mi
Dew Point: 46°   Wind: 2mph
Humidity: 100%   Direction: 90°E
Pressure: 29.71"   Gusts: NA
Location:  51.57°N, 1.23°W
Report Text: EGUB 262350Z AUTO 09002KT 1000 // OVC002/// 08/08 Q1006
Loading
Personal Weather Stations






























Interactive Weather Map New forecast layout! Learn more

10-Day Weather Forecast

Advertisements
Track Severe Weather on mobile